Terminal Aerodrome Forecast
Issued by NWS Atlanta, GA

Home | Current Version | Previous Version | Text Only | Print | Product List | Glossary On
Versions: 1 2 3 4 5 6 7 8 9 10 11 12 13 14 15 16 17 18 19 20 21 22 23 24 25 26 27 28 29 30 31
000
FTAK31 PAJN 281100
TAFAHN
TAF
PAHN 281137Z 2812/2912 30010G15KT P6SM OVC050
     FM281600 30010KT P6SM VCSH BKN030 OVC050
     FM281800 31010KT 6SM -SN OVC030
     FM282000 31010KT 3SM -SN OVC020
     FM290800 31006KT 6SM -SN OVC020
      AMD LTD TO CLD VIS AND WIND=

USA.gov is the U.S. government's official web portal to all federal, state and local government web resources and services.